Time;durP1;ratioP1;P1;durP2;ratioP2;P2;SDS_P1;SDS_P2;PMS_P1;PMS_P2;Temp;Humidity;BMP_temperature;BMP_pressure;BME280_temperature;BME280_humidity;BME280_pressure;Samples;Min_cycle;Max_cycle;Signal;HPM_P1;HPM_P2
2023/12/27 00:01:49;;;;;;;23.90;10.52;;;;;;;;;;4977607;28;20038;-89
2023/12/27 00:04:15;;;;;;;16.63;9.85;;;3.40;99.90;;;;;;4994213;28;20022;-90
2023/12/27 00:06:41;;;;;;;12.60;9.93;;;3.40;99.90;;;;;;5009803;28;20040;-90
2023/12/27 00:09:18;;;;;;;14.98;9.05;;;;;;;;;;4996551;28;20070;-90
2023/12/27 00:11:46;;;;;;;15.65;9.23;;;3.40;99.90;;;;;;4994282;28;20026;-89
2023/12/27 00:14:12;;;;;;;24.65;11.07;;;3.90;99.90;;;;;;4977139;28;20033;-90
2023/12/27 00:16:38;;;;;;;13.00;8.73;;;3.40;99.90;;;;;;4977327;28;20033;-90
2023/12/27 00:19:10;;;;;;;12.00;10.43;;;3.40;99.90;;;;;;5011749;28;20033;-89
2023/12/27 00:21:42;;;;;;;21.30;9.73;;;3.40;99.90;;;;;;4996103;28;20034;-90
2023/12/27 00:24:16;;;;;;;22.13;9.70;;;3.30;99.90;;;;;;5011197;28;20034;-89
2023/12/27 00:26:43;;;;;;;23.42;11.43;;;;;;;;;;4997223;28;20038;-88
2023/12/27 00:29:09;;;;;;;20.38;11.98;;;;;;;;;;4996193;28;20022;-89
2023/12/27 00:31:35;;;;;;;13.07;9.82;;;;;;;;;;4996481;28;20064;-90
2023/12/27 00:34:02;;;;;;;15.15;9.45;;;3.30;99.90;;;;;;4994948;28;20116;-90
2023/12/27 00:36:30;;;;;;;12.07;9.98;;;3.30;99.90;;;;;;5012667;28;20033;-89
2023/12/27 00:38:59;;;;;;;14.55;9.55;;;;;;;;;;5011161;28;20026;-90
2023/12/27 00:41:25;;;;;;;17.52;9.38;;;;;;;;;;5012735;28;20478;-90
2023/12/27 00:43:51;;;;;;;26.98;11.05;;;3.10;99.90;;;;;;5024546;28;20053;-89
2023/12/27 00:46:27;;;;;;;10.90;9.45;;;;;;;;;;5031932;28;20032;-91
2023/12/27 00:48:56;;;;;;;14.82;8.90;;;;;;;;;;4999695;28;20038;-91
2023/12/27 00:51:22;;;;;;;26.42;10.27;;;3.10;99.90;;;;;;4999353;28;20278;-89
2023/12/27 00:53:49;;;;;;;18.88;10.02;;;3.10;99.90;;;;;;4999721;28;20037;-90
2023/12/27 00:56:16;;;;;;;18.05;9.40;;;3.30;99.90;;;;;;4996308;28;20014;-90
2023/12/27 00:58:41;;;;;;;19.95;10.07;;;3.00;99.90;;;;;;5028847;28;20026;-89
2023/12/27 01:01:09;;;;;;;15.68;9.00;;;3.00;99.90;;;;;;5015591;28;20124;-89
2023/12/27 01:03:35;;;;;;;10.38;7.25;;;2.90;99.90;;;;;;4989138;28;20093;-89
2023/12/27 01:06:09;;;;;;;17.85;9.23;;;2.90;99.90;;;;;;4996027;28;20022;-89
2023/12/27 01:08:35;;;;;;;9.30;8.20;;;2.90;99.90;;;;;;4996229;28;20356;-89
2023/12/27 01:11:06;;;;;;;20.35;9.88;;;3.20;99.90;;;;;;4996241;28;20025;-90
2023/12/27 01:13:34;;;;;;;14.95;9.00;;;3.00;99.90;;;;;;5014325;28;20037;-90
2023/12/27 01:16:08;;;;;;;15.98;8.18;;;2.80;99.90;;;;;;5015353;28;20028;-89
2023/12/27 01:18:34;;;;;;;18.88;10.02;;;;;;;;;;5015327;28;20041;-89
2023/12/27 01:21:00;;;;;;;14.18;9.77;;;;;;;;;;4984587;28;20026;-89
2023/12/27 01:23:32;;;;;;;13.43;8.45;;;2.80;99.90;;;;;;4992676;28;20031;-89
2023/12/27 01:26:00;;;;;;;17.55;9.05;;;;;;;;;;4977126;28;20030;-89
2023/12/27 01:28:27;;;;;;;11.43;7.70;;;;;;;;;;4993369;28;20026;-90
2023/12/27 01:30:53;;;;;;;12.63;8.40;;;;;;;;;;4993048;28;20034;-89
2023/12/27 01:33:19;;;;;;;10.65;8.23;;;2.90;99.90;;;;;;4991548;28;20479;-90
2023/12/27 01:35:49;;;;;;;12.35;9.10;;;2.90;99.90;;;;;;4977386;28;20046;-90
2023/12/27 01:38:17;;;;;;;13.50;8.25;;;;;;;;;;4976792;28;20033;-90
2023/12/27 01:40:52;;;;;;;14.35;9.20;;;3.10;99.90;;;;;;4993072;28;20054;-89
2023/12/27 01:43:18;;;;;;;25.38;7.80;;;;;;;;;;5000077;28;20025;-90
2023/12/27 01:45:48;;;;;;;22.63;10.23;;;3.30;99.90;;;;;;5012431;28;20025;-89
2023/12/27 01:48:14;;;;;;;;;;;3.30;99.90;;;;;;4998193;28;20025;-89
2023/12/27 01:50:40;;;;;;;9.65;8.07;;;;;;;;;;5014860;28;19931;-88
2023/12/27 01:53:09;;;;;;;9.57;8.43;;;3.30;99.90;;;;;;5012306;28;20036;-90
2023/12/27 01:55:37;;;;;;;16.17;8.68;;;3.40;99.90;;;;;;5008615;28;20059;-89
2023/12/27 01:58:08;;;;;;;11.98;8.70;;;3.40;99.90;;;;;;4998630;28;20087;-89
2023/12/27 02:00:37;;;;;;;10.73;8.27;;;3.50;99.90;;;;;;5001146;28;20029;-89
2023/12/27 02:03:07;;;;;;;23.73;8.93;;;3.50;99.90;;;;;;5017275;28;20041;-89
2023/12/27 02:05:35;;;;;;;28.67;9.38;;;3.70;99.90;;;;;;5004246;28;20030;-90
2023/12/27 02:08:02;;;;;;;28.83;9.15;;;3.60;99.90;;;;;;5021399;28;20080;-90
2023/12/27 02:10:29;;;;;;;10.27;8.10;;;3.80;99.90;;;;;;5021684;28;20022;-89
2023/12/27 02:12:55;;;;;;;29.55;8.80;;;3.40;99.90;;;;;;5015830;28;20029;-91
2023/12/27 02:15:23;;;;;;;16.00;9.68;;;3.70;99.90;;;;;;5038185;28;20041;-92
2023/12/27 02:17:52;;;;;;;12.07;6.78;;;3.70;99.90;;;;;;5022457;28;20049;-90
2023/12/27 02:20:18;;;;;;;27.20;8.50;;;3.50;99.90;;;;;;5038041;28;20101;-92
2023/12/27 02:22:46;;;;;;;9.52;6.07;;;3.80;99.90;;;;;;5037750;28;20016;-92
2023/12/27 02:25:15;;;;;;;16.25;7.93;;;3.80;99.90;;;;;;5023406;28;20018;-90
2023/12/27 02:27:44;;;;;;;14.65;7.93;;;;;;;;;;5023395;28;20013;-89
2023/12/27 02:30:21;;;;;;;21.13;9.73;;;3.90;99.90;;;;;;5039608;28;20041;-90
2023/12/27 02:32:51;;;;;;;17.60;9.57;;;3.90;99.90;;;;;;5001827;28;20046;-88
2023/12/27 02:35:22;;;;;;;20.75;8.38;;;3.90;99.90;;;;;;4999747;28;20164;-90
2023/12/27 02:37:48;;;;;;;24.90;11.43;;;;;;;;;;4999421;28;20045;-88
2023/12/27 02:40:14;;;;;;;27.83;9.43;;;;;;;;;;4999558;28;20033;-90
2023/12/27 02:42:40;;;;;;;22.00;9.23;;;3.90;99.90;;;;;;5012018;28;20044;-90
2023/12/27 02:45:09;;;;;;;17.65;11.00;;;3.90;99.90;;;;;;4991128;28;20033;-89
2023/12/27 02:47:35;;;;;;;12.23;8.80;;;3.90;99.90;;;;;;4979953;28;20129;-89
2023/12/27 02:50:04;;;;;;;27.95;11.95;;;3.90;99.90;;;;;;4980161;28;20065;-89
2023/12/27 02:52:33;;;;;;;24.65;10.52;;;4.00;99.90;;;;;;4983353;28;20116;-89
2023/12/27 02:54:59;;;;;;;14.73;9.68;;;4.00;99.90;;;;;;5017809;28;20026;-90
2023/12/27 02:57:27;;;;;;;13.80;9.38;;;4.10;99.90;;;;;;5018971;28;20075;-89
2023/12/27 02:59:53;;;;;;;20.17;12.23;;;4.10;99.90;;;;;;5018888;28;20059;-89
2023/12/27 03:02:24;;;;;;;16.48;11.05;;;4.20;99.90;;;;;;5017665;28;20064;-89
2023/12/27 03:04:53;;;;;;;14.48;11.63;;;;;;;;;;5018560;28;20025;-88
2023/12/27 03:07:22;;;;;;;10.93;9.52;;;;;;;;;;5002397;28;20033;-90
2023/12/27 03:09:48;;;;;;;25.83;11.07;;;;;;;;;;5001446;28;20496;-91
2023/12/27 03:12:17;;;;;;;15.63;11.30;;;4.30;99.90;;;;;;4998615;28;20033;-90
2023/12/27 03:14:43;;;;;;;14.73;11.68;;;4.30;99.90;;;;;;4988030;28;20034;-91
2023/12/27 03:17:11;;;;;;;20.23;13.88;;;4.40;99.90;;;;;;4970774;28;20053;-91
2023/12/27 03:19:38;;;;;;;23.35;11.35;;;;;;;;;;4978497;28;20467;-89
2023/12/27 03:22:03;;;;;;;12.93;11.13;;;4.40;99.90;;;;;;4977988;28;20057;-94
2023/12/27 03:24:30;;;;;;;25.80;12.40;;;;;;;;;;4962577;28;20077;-92
2023/12/27 03:26:56;;;;;;;16.30;11.85;;;4.50;99.90;;;;;;4962426;28;20026;-90
2023/12/27 03:29:22;;;;;;;21.75;13.05;;;;;;;;;;4962257;28;20053;-90
2023/12/27 03:31:48;;;;;;;20.95;11.27;;;;;;;;;;4962415;28;20026;-91
2023/12/27 03:34:14;;;;;;;20.90;11.70;;;4.60;99.90;;;;;;4996030;28;20040;-90
2023/12/27 03:36:41;;;;;;;15.20;12.98;;;4.60;99.90;;;;;;5010384;28;20022;-90
2023/12/27 03:39:07;;;;;;;22.40;10.70;;;;;;;;;;4997780;28;20084;-90
2023/12/27 03:41:33;;;;;;;15.98;10.32;;;4.80;99.90;;;;;;4997647;28;20110;-89
2023/12/27 03:43:59;;;;;;;15.07;8.63;;;;;;;;;;4996465;28;20112;-90
2023/12/27 03:46:26;;;;;;;35.55;10.73;;;4.80;99.90;;;;;;4980845;28;20060;-91
2023/12/27 03:48:57;;;;;;;16.60;9.63;;;;;;;;;;4997497;28;20084;-90
2023/12/27 03:51:24;;;;;;;16.42;10.55;;;;;;;;;;4980925;28;20066;-90
2023/12/27 03:53:49;;;;;;;10.43;8.68;;;5.10;99.90;;;;;;4980110;28;20465;-91
2023/12/27 03:56:20;;;;;;;18.98;9.85;;;4.90;99.90;;;;;;4981557;28;20030;-90
2023/12/27 03:58:46;;;;;;;13.45;8.32;;;4.00;99.90;;;;;;4980880;28;20137;-91
2023/12/27 04:01:13;;;;;;;11.25;9.63;;;;;;;;;;4997284;28;20469;-90
2023/12/27 04:03:40;;;;;;;16.30;7.68;;;4.90;99.90;;;;;;4989603;28;20041;-90
2023/12/27 04:06:06;;;;;;;18.15;8.88;;;;;;;;;;5016519;28;20026;-90
2023/12/27 04:08:33;;;;;;;13.52;8.77;;;;;;;;;;5016479;28;20029;-91
2023/12/27 04:11:02;;;;;;;11.10;7.10;;;5.00;99.90;;;;;;5000725;28;20021;-90
2023/12/27 04:13:30;;;;;;;12.43;7.05;;;5.00;99.90;;;;;;5003687;28;20041;-90
2023/12/27 04:15:57;;;;;;;14.95;7.63;;;5.00;99.90;;;;;;4981228;28;20022;-91
2023/12/27 04:18:23;;;;;;;15.90;7.18;;;5.00;99.90;;;;;;4980589;28;20355;-90
2023/12/27 04:20:49;;;;;;;7.40;6.47;;;;;;;;;;4980627;28;20174;-90
2023/12/27 04:23:18;;;;;;;16.60;9.38;;;;;;;;;;4979822;28;20038;-91
2023/12/27 04:25:44;;;;;;;16.48;8.60;;;5.10;99.90;;;;;;5013637;28;20022;-92
2023/12/27 04:28:13;;;;;;;10.13;6.82;;;;;;;;;;4983936;28;20415;-90
2023/12/27 04:30:39;;;;;;;18.13;9.52;;;5.20;99.90;;;;;;4996381;28;20025;-90
2023/12/27 04:33:08;;;;;;;16.65;7.85;;;5.20;99.90;;;;;;5003527;28;20051;-92
2023/12/27 04:35:34;;;;;;;10.00;7.78;;;5.40;99.90;;;;;;5016238;28;20057;-91
2023/12/27 04:38:00;;;;;;;15.15;8.05;;;5.20;99.90;;;;;;5016802;28;20032;-91
2023/12/27 04:40:26;;;;;;;18.13;6.82;;;5.40;99.90;;;;;;5016606;28;20215;-91
2023/12/27 04:42:53;;;;;;;10.60;7.07;;;5.60;99.90;;;;;;5015588;28;20021;-91
2023/12/27 04:45:22;;;;;;;13.07;6.70;;;;;;;;;;5016186;28;20093;-91
2023/12/27 04:47:48;;;;;;;8.30;7.22;;;;;;;;;;4987462;28;20296;-90
2023/12/27 04:50:17;;;;;;;10.02;6.90;;;5.30;99.90;;;;;;5012577;28;20484;-91
2023/12/27 04:52:44;;;;;;;10.05;5.85;;;;;;;;;;4995556;28;20030;-90
2023/12/27 04:55:12;;;;;;;19.60;6.95;;;;;;;;;;5012259;28;20030;-90
2023/12/27 04:57:41;;;;;;;8.98;6.10;;;5.40;99.90;;;;;;5011748;28;20040;-92
2023/12/27 05:00:07;;;;;;;16.73;7.25;;;5.40;99.90;;;;;;4996375;28;20029;-94
2023/12/27 05:02:36;;;;;;;12.95;6.22;;;5.40;99.90;;;;;;5000675;28;20036;-91
2023/12/27 05:05:02;;;;;;;8.45;5.72;;;5.30;99.90;;;;;;4985052;28;20022;-91
2023/12/27 05:07:29;;;;;;;9.48;6.65;;;;;;;;;;4981056;28;20065;-91
2023/12/27 05:09:55;;;;;;;8.57;6.40;;;5.40;99.90;;;;;;4980374;28;20036;-91
2023/12/27 05:12:23;;;;;;;19.23;7.82;;;5.30;99.90;;;;;;4978836;28;20150;-90
2023/12/27 05:14:49;;;;;;;17.30;6.78;;;;;;;;;;5012978;28;20030;-90
2023/12/27 05:17:15;;;;;;;16.25;7.80;;;5.50;99.90;;;;;;4986935;28;20053;-91
2023/12/27 05:19:44;;;;;;;19.50;6.30;;;5.40;99.90;;;;;;4976915;28;20022;-90
2023/12/27 05:22:10;;;;;;;16.23;7.90;;;5.40;99.90;;;;;;4987074;28;20025;-91
2023/12/27 05:24:36;;;;;;;10.85;7.88;;;;;;;;;;5012326;28;20298;-92
2023/12/27 05:27:03;;;;;;;6.78;5.85;;;;;;;;;;4998707;28;20037;-90
2023/12/27 05:29:34;;;;;;;8.38;7.40;;;5.40;99.90;;;;;;4999575;28;20567;-92
2023/12/27 05:32:02;;;;;;;16.75;6.82;;;5.50;99.90;;;;;;5015763;28;20175;-92
2023/12/27 05:34:28;;;;;;;10.55;6.47;;;;;;;;;;4979880;28;20026;-91
2023/12/27 05:36:55;;;;;;;11.77;7.90;;;;;;;;;;4980351;28;20030;-91
2023/12/27 05:39:21;;;;;;;24.33;9.15;;;;;;;;;;4964495;28;20022;-91
2023/12/27 05:41:47;;;;;;;10.30;6.72;;;5.50;99.90;;;;;;4980444;28;20521;-91
2023/12/27 05:44:15;;;;;;;17.05;8.95;;;5.50;99.90;;;;;;4981472;28;20022;-90
2023/12/27 05:46:42;;;;;;;11.77;6.70;;;5.90;99.90;;;;;;5012321;28;20062;-91
2023/12/27 05:49:08;;;;;;;11.15;7.10;;;;;;;;;;5036132;28;20030;-93
2023/12/27 05:51:34;;;;;;;10.80;8.02;;;5.50;99.90;;;;;;5035550;28;20034;-91
2023/12/27 05:54:03;;;;;;;9.52;7.65;;;;;;;;;;5015106;28;20117;-91
2023/12/27 05:56:29;;;;;;;11.07;8.35;;;6.00;99.90;;;;;;5002245;28;20032;-91
2023/12/27 05:58:55;;;;;;;20.65;8.93;;;;;;;;;;4981799;28;20041;-90
2023/12/27 06:01:22;;;;;;;10.95;7.72;;;;;;;;;;4994214;28;20493;-91
2023/12/27 06:03:51;;;;;;;12.82;8.07;;;;;;;;;;5015396;28;20060;-92
2023/12/27 06:06:17;;;;;;;15.63;8.73;;;5.70;99.90;;;;;;5015072;28;20034;-92
2023/12/27 06:08:45;;;;;;;15.57;8.70;;;5.90;99.90;;;;;;4999962;28;20041;-92
2023/12/27 06:11:14;;;;;;;16.92;8.30;;;;;;;;;;4982739;28;20038;-92
2023/12/27 06:13:43;;;;;;;8.98;8.13;;;5.80;99.90;;;;;;5006795;28;20029;-92
2023/12/27 06:16:12;;;;;;;11.98;8.77;;;6.00;99.90;;;;;;4998455;28;20470;-92
2023/12/27 06:18:38;;;;;;;18.80;9.60;;;;;;;;;;4994900;28;20117;-91
2023/12/27 06:21:11;;;;;;;13.50;9.15;;;5.90;99.90;;;;;;4982491;28;20793;-91
2023/12/27 06:23:45;;;;;;;9.48;8.48;;;;;;;;;;4993175;28;20038;-90
2023/12/27 06:26:19;;;;;;;12.65;8.40;;;6.00;99.90;;;;;;5004814;28;20038;-92
2023/12/27 06:28:48;;;;;;;10.77;8.55;;;6.10;99.90;;;;;;4992291;28;20038;-92
2023/12/27 06:31:15;;;;;;;8.10;7.22;;;;;;;;;;5017811;28;20090;-91
2023/12/27 06:33:46;;;;;;;11.93;7.78;;;6.10;99.90;;;;;;5010135;28;20125;-91
2023/12/27 06:36:12;;;;;;;17.85;9.90;;;6.00;99.90;;;;;;4998699;28;20475;-91
2023/12/27 06:38:40;;;;;;;14.90;8.90;;;;;;;;;;4981631;28;20080;-91
2023/12/27 06:41:08;;;;;;;12.13;8.57;;;6.20;99.90;;;;;;5002785;28;20037;-91
2023/12/27 06:43:37;;;;;;;17.88;10.38;;;;;;;;;;4979079;28;20602;-90
2023/12/27 06:46:03;;;;;;;9.65;8.65;;;6.20;99.90;;;;;;4973940;28;20034;-93
2023/12/27 06:48:31;;;;;;;18.55;9.80;;;6.20;99.90;;;;;;4996906;28;20030;-92
2023/12/27 06:50:58;;;;;;;12.63;9.27;;;;;;;;;;4988031;28;20489;-90
2023/12/27 06:53:26;;;;;;;15.40;10.30;;;6.20;99.90;;;;;;5013945;28;20121;-93
2023/12/27 06:55:55;;;;;;;12.70;9.60;;;6.30;99.90;;;;;;5018108;28;20436;-92
2023/12/27 06:58:24;;;;;;;14.60;10.10;;;6.30;99.90;;;;;;5004121;28;20030;-93
2023/12/27 07:00:50;;;;;;;10.82;9.73;;;;;;;;;;4979359;28;20109;-92
2023/12/27 07:03:16;;;;;;;14.60;8.95;;;6.30;99.90;;;;;;4980473;28;20083;-92
2023/12/27 07:05:45;;;;;;;16.00;9.18;;;6.40;99.90;;;;;;5000933;28;20018;-92
2023/12/27 07:08:43;;;;;;;;;;;;;;;;;;;;;
2023/12/27 07:11:21;;;;;;;13.30;9.80;;;6.40;99.90;;;;;;5023527;28;20034;-92
2023/12/27 07:14:10;;;;;;;13.00;10.70;;;6.40;99.90;;;;;;4976301;28;20106;-92
2023/12/27 07:17:04;;;;;;;11.77;8.85;;;6.40;99.90;;;;;;4987812;28;20030;-96
2023/12/27 07:19:31;;;;;;;12.38;10.30;;;;;;;;;;4973478;28;20050;-93
2023/12/27 07:22:01;;;;;;;14.15;9.85;;;6.40;99.90;;;;;;4957660;28;20041;-94
2023/12/27 07:24:29;;;;;;;13.45;9.48;;;;;;;;;;4965243;28;20526;-94
2023/12/27 07:27:03;;;;;;;11.57;9.70;;;6.60;99.90;;;;;;4975140;28;20222;-94
2023/12/27 07:29:34;;;;;;;19.33;15.20;;;;;;;;;;4960739;28;20537;-94
2023/12/27 07:32:07;;;;;;;15.98;12.35;;;6.60;99.90;;;;;;4960648;28;20048;-93
2023/12/27 07:34:37;;;;;;;12.75;10.45;;;;;;;;;;4960113;28;20034;-92
2023/12/27 07:37:16;;;;;;;18.42;10.40;;;6.50;99.90;;;;;;4960451;28;20034;-92
2023/12/27 07:40:23;;;;;;;25.15;12.70;;;6.50;99.90;;;;;;4977319;28;20058;-93
2023/12/27 07:43:03;;;;;;;14.77;9.85;;;6.60;99.90;;;;;;4991688;28;20030;-93
2023/12/27 07:45:31;;;;;;;12.70;10.27;;;;;;;;;;4976146;28;20585;-92
2023/12/27 07:48:02;;;;;;;16.50;9.27;;;;;;;;;;4976690;28;20065;-93
2023/12/27 07:50:31;;;;;;;19.90;11.82;;;6.60;99.90;;;;;;4976057;28;20043;-93
2023/12/27 07:52:59;;;;;;;15.15;9.00;;;6.50;99.90;;;;;;4955465;28;20507;-93
2023/12/27 07:55:28;;;;;;;11.40;10.02;;;;;;;;;;4959151;28;20034;-92
2023/12/27 07:58:01;;;;;;;12.70;10.68;;;6.70;99.90;;;;;;4959418;28;20141;-92
2023/12/27 08:00:54;;;;;;;15.02;11.45;;;6.70;99.90;;;;;;4977475;28;20538;-93
2023/12/27 08:03:24;;;;;;;9.95;8.95;;;;;;;;;;4975571;28;20046;-92
2023/12/27 08:06:11;;;;;;;13.32;9.50;;;6.70;99.90;;;;;;4952550;29;20130;-92
2023/12/27 08:09:02;;;;;;;16.83;9.52;;;6.70;99.90;;;;;;4926504;28;20054;-93
2023/12/27 08:11:38;;;;;;;17.60;9.23;;;6.70;99.90;;;;;;4935786;28;20050;-94
2023/12/27 08:14:28;;;;;;;13.10;10.00;;;6.80;99.90;;;;;;4969653;28;20042;-94
2023/12/27 08:17:26;;;;;;;9.60;8.10;;;6.80;99.90;;;;;;5001837;28;20109;-93
2023/12/27 08:20:37;;;;;;;8.68;7.78;;;6.80;99.90;;;;;;4963595;28;20062;-92
2023/12/27 08:24:24;;;;;;;10.07;7.63;;;6.80;99.90;;;;;;4940186;29;20047;-94
2023/12/27 08:27:39;;;;;;;12.50;7.78;;;6.90;99.90;;;;;;4875791;29;20037;-93
2023/12/27 08:30:27;;;;;;;9.20;7.38;;;;;;;;;;4857553;29;20622;-92
2023/12/27 08:33:30;;;;;;;17.80;8.43;;;7.00;99.90;;;;;;4858498;29;20057;-92
2023/12/27 08:36:33;;;;;;;14.48;7.97;;;;;;;;;;4821865;29;20115;-92
2023/12/27 08:39:20;;;;;;;8.55;7.75;;;;;;;;;;4815697;29;20042;-92
2023/12/27 08:42:16;;;;;;;6.60;5.95;;;;;;;;;;4828634;29;20050;-93
2023/12/27 08:44:42;;;;;;;9.73;8.40;;;;;;;;;;4822494;29;20046;-92
2023/12/27 08:47:11;;;;;;;10.27;6.95;;;7.40;99.90;;;;;;4793270;29;20038;-93
2023/12/27 08:49:58;;;;;;;6.88;4.93;;;;;;;;;;4789640;29;20245;-93
2023/12/27 08:52:43;;;;;;;4.07;3.58;;;7.50;99.90;;;;;;4753510;30;20127;-93
2023/12/27 08:55:52;;;;;;;5.25;4.65;;;7.50;99.90;;;;;;4757480;30;20102;-93
2023/12/27 08:58:26;;;;;;;4.68;3.80;;;;;;;;;;4756852;30;20135;-92
2023/12/27 09:01:00;;;;;;;3.63;3.33;;;;;;;;;;4756672;29;20033;-95
2023/12/27 09:03:48;;;;;;;3.42;3.13;;;;;;;;;;4746244;29;20037;-96
2023/12/27 09:06:16;;;;;;;6.75;2.65;;;7.80;99.90;;;;;;4756734;29;20029;-95
2023/12/27 09:09:28;;;;;;;3.15;2.85;;;7.70;99.90;;;;;;4808613;29;20035;-94
2023/12/27 09:12:15;;;;;;;2.20;2.03;;;8.00;99.90;;;;;;4771303;29;20043;-93
2023/12/27 09:15:05;;;;;;;2.92;2.72;;;;;;;;;;4846327;29;20057;-94
2023/12/27 09:17:34;;;;;;;3.95;2.63;;;8.00;99.90;;;;;;4907027;29;20031;-91
2023/12/27 09:20:03;;;;;;;6.95;2.22;;;;;;;;;;4912516;29;20060;-93
2023/12/27 09:22:38;;;;;;;;;;;8.10;99.90;;;;;;4916229;29;20055;-92
2023/12/27 09:25:10;;;;;;;2.95;2.55;;;8.20;99.90;;;;;;4930777;29;19923;-93
2023/12/27 09:27:57;;;;;;;4.93;2.10;;;8.30;99.90;;;;;;4896725;29;20088;-92
2023/12/27 09:30:27;;;;;;;1.42;1.38;;;8.00;99.90;;;;;;4896322;29;20131;-93
2023/12/27 09:32:58;;;;;;;3.95;2.40;;;8.20;99.90;;;;;;4889332;29;20073;-93
2023/12/27 09:35:35;;;;;;;1.77;1.65;;;8.20;99.90;;;;;;4873329;29;20049;-91
2023/12/27 09:38:16;;;;;;;2.80;1.73;;;8.30;99.90;;;;;;4896917;29;20128;-92
2023/12/27 09:40:47;;;;;;;1.30;1.20;;;8.30;99.90;;;;;;4902958;29;20169;-92
2023/12/27 09:43:20;;;;;;;2.28;2.05;;;8.40;99.90;;;;;;4902627;29;20043;-93
2023/12/27 09:45:47;;;;;;;3.35;1.30;;;8.40;99.90;;;;;;4938227;28;20046;-93
2023/12/27 09:48:15;;;;;;;2.58;1.60;;;8.50;99.90;;;;;;4944193;28;20073;-93
2023/12/27 09:50:50;;;;;;;5.10;2.10;;;;;;;;;;4945677;28;20038;-92
2023/12/27 09:53:30;;;;;;;2.38;1.40;;;8.60;99.90;;;;;;5009881;28;20045;-91
2023/12/27 09:56:01;;;;;;;1.45;1.17;;;8.60;99.90;;;;;;5012586;28;20439;-92
2023/12/27 09:58:28;;;;;;;2.70;2.08;;;8.70;99.90;;;;;;4996426;28;20026;-94
2023/12/27 10:01:22;;;;;;;11.27;2.20;;;8.90;99.90;;;;;;4996541;28;20056;-92
2023/12/27 10:03:58;;;;;;;3.80;1.98;;;8.80;99.90;;;;;;5019064;28;20184;-92
2023/12/27 10:06:43;;;;;;;1.27;1.13;;;8.90;99.90;;;;;;5010450;28;20117;-91
2023/12/27 10:09:17;;;;;;;3.50;2.67;;;;;;;;;;4978691;28;20483;-92
2023/12/27 10:11:43;;;;;;;7.65;2.22;;;;;;;;;;4976244;28;20030;-93
2023/12/27 10:14:11;;;;;;;2.95;1.83;;;9.00;99.90;;;;;;4989472;28;20073;-93
2023/12/27 10:16:38;;;;;;;6.22;3.67;;;9.20;99.90;;;;;;4979249;28;20026;-91
2023/12/27 10:19:41;;;;;;;2.70;2.50;;;9.10;99.90;;;;;;4998195;28;20026;-92
2023/12/27 10:22:08;;;;;;;9.95;2.13;;;;;;;;;;4982747;28;20037;-92
2023/12/27 10:24:37;;;;;;;8.10;3.45;;;;;;;;;;4982215;28;20018;-91
2023/12/27 10:27:06;;;;;;;2.58;2.20;;;9.20;99.90;;;;;;4998845;28;20136;-92
2023/12/27 10:29:33;;;;;;;7.00;2.90;;;9.20;99.90;;;;;;5015153;28;20034;-92
2023/12/27 10:32:00;;;;;;;6.05;1.95;;;9.20;99.90;;;;;;4998556;28;20390;-91
2023/12/27 10:34:33;;;;;;;2.88;2.67;;;9.20;99.90;;;;;;4998927;28;20022;-93
2023/12/27 10:37:01;;;;;;;2.28;1.45;;;;;;;;;;5010558;28;20091;-91
2023/12/27 10:39:31;;;;;;;5.87;2.67;;;9.30;99.90;;;;;;4995313;28;20026;-92
2023/12/27 10:42:01;;;;;;;12.20;3.78;;;;;;;;;;4995514;28;20293;-92
2023/12/27 10:44:27;;;;;;;5.93;2.55;;;;;;;;;;5010898;28;20034;-94
2023/12/27 10:46:56;;;;;;;3.10;2.85;;;9.30;99.90;;;;;;4996483;28;20027;-93
2023/12/27 10:49:40;;;;;;;8.15;2.28;;;9.20;99.90;;;;;;5015010;28;20026;-93
2023/12/27 10:52:15;;;;;;;11.20;2.22;;;9.30;99.90;;;;;;4998062;28;20475;-91
2023/12/27 10:54:49;;;;;;;7.28;3.13;;;9.40;99.90;;;;;;5006040;28;20037;-90
2023/12/27 10:57:22;;;;;;;2.35;1.80;;;9.40;99.90;;;;;;4992334;28;20471;-92
2023/12/27 10:59:49;;;;;;;12.45;1.33;;;9.60;99.90;;;;;;4998366;28;20030;-92
2023/12/27 11:02:17;;;;;;;5.50;1.92;;;9.50;99.90;;;;;;4998417;28;20026;-92
2023/12/27 11:04:45;;;;;;;5.07;2.00;;;9.50;99.90;;;;;;4997148;28;20030;-93
2023/12/27 11:07:18;;;;;;;9.27;1.92;;;9.50;99.90;;;;;;4998847;28;20022;-92
2023/12/27 11:10:05;;;;;;;2.35;1.92;;;9.40;99.90;;;;;;4997703;28;20045;-91
2023/12/27 11:12:39;;;;;;;5.43;1.77;;;9.50;99.90;;;;;;4998969;28;20061;-91
2023/12/27 11:15:08;;;;;;;8.25;3.53;;;10.20;99.90;;;;;;5012933;28;20193;-92
2023/12/27 11:17:37;;;;;;;4.47;2.25;;;9.50;99.90;;;;;;5013729;28;20034;-91
2023/12/27 11:20:06;;;;;;;3.58;1.80;;;9.70;99.90;;;;;;5012961;28;20514;-92
2023/12/27 11:22:35;;;;;;;6.75;1.73;;;9.70;99.90;;;;;;4996020;28;20088;-91
2023/12/27 11:25:05;;;;;;;15.27;2.92;;;9.70;99.90;;;;;;4997054;28;20097;-93
2023/12/27 11:27:41;;;;;;;4.10;2.70;;;9.70;99.90;;;;;;4981272;28;20092;-92
2023/12/27 11:30:12;;;;;;;5.75;2.03;;;9.80;99.90;;;;;;4980383;28;20085;-92
2023/12/27 11:32:41;;;;;;;5.28;2.33;;;9.80;99.90;;;;;;4978556;28;20047;-93
2023/12/27 11:35:24;;;;;;;4.07;2.38;;;9.70;99.90;;;;;;4997146;28;20041;-92
2023/12/27 11:38:15;;;;;;;5.00;3.70;;;9.80;99.90;;;;;;4981039;28;20034;-92
2023/12/27 11:40:45;;;;;;;9.40;3.92;;;9.80;99.90;;;;;;4977793;28;20405;-92
2023/12/27 11:43:22;;;;;;;4.00;3.53;;;9.80;99.90;;;;;;5013024;28;20029;-92
2023/12/27 11:46:02;;;;;;;8.02;2.13;;;9.80;99.90;;;;;;5014656;28;20030;-92
2023/12/27 11:48:33;;;;;;;;;;;9.70;99.90;;;;;;5017464;28;20030;-92
2023/12/27 11:51:02;;;;;;;;;;;9.80;99.90;;;;;;5017552;28;19909;-92
2023/12/27 11:53:32;;;;;;;6.53;2.50;;;9.90;99.90;;;;;;5016129;28;19924;-92
2023/12/27 11:56:04;;;;;;;11.77;3.65;;;9.80;99.90;;;;;;5016794;28;20029;-92
2023/12/27 11:58:32;;;;;;;6.10;2.50;;;9.80;99.90;;;;;;5017052;28;20022;-91
2023/12/27 12:01:21;;;;;;;5.85;2.85;;;9.90;99.90;;;;;;5016525;28;20052;-92
2023/12/27 12:04:14;;;;;;;7.18;3.17;;;9.90;99.90;;;;;;5031784;28;20029;-94
2023/12/27 12:07:15;;;;;;;4.57;3.35;;;9.90;99.90;;;;;;5016752;28;20462;-92
2023/12/27 12:09:44;;;;;;;2.53;2.33;;;9.90;99.90;;;;;;5017271;28;20030;-92
2023/12/27 12:12:17;;;;;;;2.72;2.28;;;9.80;99.90;;;;;;4988321;28;20037;-92
2023/12/27 12:14:44;;;;;;;12.98;2.78;;;10.10;99.90;;;;;;4996367;28;20196;-92
2023/12/27 12:17:13;;;;;;;4.85;1.60;;;10.00;99.90;;;;;;4972690;28;20056;-91
2023/12/27 12:19:40;;;;;;;2.60;2.40;;;;;;;;;;4997129;28;20033;-91
2023/12/27 12:22:09;;;;;;;12.52;2.85;;;10.30;99.90;;;;;;4996996;28;20304;-91
2023/12/27 12:24:42;;;;;;;5.55;3.00;;;8.50;99.90;;;;;;5007525;28;20041;-92
2023/12/27 12:27:15;;;;;;;3.33;1.83;;;10.50;99.90;;;;;;4996690;28;20029;-91
2023/12/27 12:29:44;;;;;;;4.47;3.08;;;10.50;99.90;;;;;;5006218;28;20129;-91
2023/12/27 12:32:13;;;;;;;4.28;2.60;;;10.50;99.90;;;;;;4988269;28;20133;-91
2023/12/27 12:34:41;;;;;;;4.07;2.38;;;10.50;99.90;;;;;;5005078;28;20085;-91
2023/12/27 12:37:14;;;;;;;9.02;2.88;;;10.40;99.90;;;;;;4996422;28;20641;-91
2023/12/27 12:39:47;;;;;;;3.80;2.78;;;;;;;;;;4981783;28;20092;-92
2023/12/27 12:42:14;;;;;;;5.13;2.45;;;;;;;;;;4980268;28;20029;-91
2023/12/27 12:44:40;;;;;;;10.20;2.97;;;;;;;;;;4995894;28;20036;-92
2023/12/27 12:47:07;;;;;;;7.45;2.85;;;10.30;99.90;;;;;;4996293;28;20030;-91
2023/12/27 12:49:37;;;;;;;4.05;3.15;;;;;;;;;;5008245;28;20112;-90
2023/12/27 12:52:09;;;;;;;5.70;3.10;;;10.20;99.90;;;;;;4996026;28;20044;-90
2023/12/27 12:54:36;;;;;;;8.05;4.43;;;;;;;;;;5007078;28;20058;-91
2023/12/27 12:57:03;;;;;;;2.72;2.53;;;10.20;99.90;;;;;;5012307;28;20116;-91
2023/12/27 12:59:29;;;;;;;6.93;3.35;;;;;;;;;;4996339;28;20032;-92
2023/12/27 13:01:58;;;;;;;6.95;3.55;;;10.00;99.90;;;;;;4979636;28;20044;-91
2023/12/27 13:04:27;;;;;;;6.80;2.38;;;;;;;;;;4979673;28;20034;-92
2023/12/27 13:07:04;;;;;;;7.10;2.85;;;9.90;99.90;;;;;;4995985;28;20125;-91
2023/12/27 13:09:31;;;;;;;9.55;3.05;;;10.10;99.90;;;;;;5007392;28;20034;-91
2023/12/27 13:11:57;;;;;;;5.97;1.85;;;9.80;99.90;;;;;;5014019;28;20112;-91
2023/12/27 13:14:23;;;;;;;4.22;2.83;;;9.50;99.90;;;;;;4999043;28;20029;-91
2023/12/27 13:16:50;;;;;;;3.97;2.47;;;;;;;;;;4996104;28;20030;-93
2023/12/27 13:19:17;;;;;;;4.28;2.55;;;;;;;;;;4995931;28;20041;-91
2023/12/27 13:21:44;;;;;;;6.03;3.42;;;9.70;99.90;;;;;;4996510;28;20407;-91
2023/12/27 13:24:13;;;;;;;9.48;2.92;;;9.60;99.90;;;;;;5003240;28;20030;-91
2023/12/27 13:26:39;;;;;;;6.97;3.85;;;;;;;;;;4980068;28;20026;-92
2023/12/27 13:29:08;;;;;;;2.05;1.85;;;9.80;99.90;;;;;;4995963;28;20029;-91
2023/12/27 13:31:37;;;;;;;5.82;2.20;;;9.60;99.90;;;;;;4979987;28;20065;-91
2023/12/27 13:34:03;;;;;;;6.97;3.38;;;9.70;99.90;;;;;;4978723;28;20045;-92
2023/12/27 13:36:29;;;;;;;26.25;4.40;;;9.70;99.90;;;;;;4979540;28;20026;-92
2023/12/27 13:38:56;;;;;;;8.48;2.63;;;;;;;;;;4979846;28;20033;-92
2023/12/27 13:41:24;;;;;;;9.85;2.38;;;9.70;99.90;;;;;;4991389;28;20029;-92
2023/12/27 13:43:53;;;;;;;3.30;3.00;;;10.30;99.90;;;;;;4979443;28;20030;-93